Time;durP1;ratioP1;P1;durP2;ratioP2;P2;SDS_P1;SDS_P2;PMS_P1;PMS_P2;Temp;Humidity;BMP_temperature;BMP_pressure;BME280_temperature;BME280_humidity;BME280_pressure;Samples;Min_cycle;Max_cycle;Signal;HPM_P1;HPM_P2
2023/01/26 00:01:30;;;;;;;126.72;41.67;;;;;;;-1.18;91.72;102493.13;5045210;28;20053;-69
2023/01/26 00:03:57;;;;;;;129.02;42.38;;;;;;;-1.19;91.53;102493.06;5043626;28;20555;-68
2023/01/26 00:06:25;;;;;;;135.10;44.97;;;;;;;-1.20;91.47;102483.50;5061972;28;20041;-69
2023/01/26 00:08:55;;;;;;;115.95;42.95;;;;;;;-1.21;91.69;102485.19;5042558;28;20644;-69
2023/01/26 00:11:26;;;;;;;123.70;43.75;;;;;;;-1.22;91.50;102485.13;5043494;28;20048;-69
2023/01/26 00:13:57;;;;;;;128.32;42.00;;;;;;;-1.23;91.72;102478.19;5059636;28;20135;-69
2023/01/26 00:16:26;;;;;;;115.43;42.15;;;;;;;-1.26;91.65;102464.28;5045459;28;20604;-69
2023/01/26 00:18:53;;;;;;;125.80;42.75;;;;;;;-1.27;91.68;102472.00;5043685;28;20176;-70
2023/01/26 00:21:23;;;;;;;123.97;42.47;;;;;;;-1.30;91.67;102465.00;5060796;28;20041;-69
2023/01/26 00:23:51;;;;;;;115.10;43.13;;;;;;;-1.32;91.74;102468.34;5044847;28;20045;-69
2023/01/26 00:26:23;;;;;;;111.68;37.75;;;;;;;-1.32;91.72;102458.84;5046298;28;20594;-70
2023/01/26 00:28:52;;;;;;;115.57;40.58;;;;;;;-1.30;91.82;102454.63;5041434;28;20476;-69
2023/01/26 00:31:26;;;;;;;112.13;39.42;;;;;;;-1.28;91.89;102452.09;5043052;28;20038;-68
2023/01/26 00:33:55;;;;;;;118.55;41.40;;;;;;;-1.29;91.79;102446.06;5043935;28;20048;-69
2023/01/26 00:36:22;;;;;;;117.90;41.33;;;;;;;-1.29;91.84;102438.31;5039303;28;20097;-69
2023/01/26 00:38:50;;;;;;;117.95;40.20;;;;;;;-1.28;92.01;102434.91;5040883;28;20128;-69
2023/01/26 00:44:03;;;;;;;117.35;40.33;;;;;;;-1.28;91.91;102441.75;5059758;28;20048;-69
2023/01/26 00:46:30;;;;;;;114.97;41.95;;;;;;;-1.26;91.99;102445.31;5054324;28;20052;-70
2023/01/26 00:48:59;;;;;;;116.82;41.90;;;;;;;-1.26;91.94;102440.13;5041031;28;20108;-69
2023/01/26 00:51:27;;;;;;;124.07;43.55;;;;;;;-1.26;91.92;102433.22;5044680;28;20034;-69
2023/01/26 00:53:54;;;;;;;113.70;42.28;;;;;;;-1.25;91.91;102429.84;5043072;28;20064;-69
2023/01/26 00:56:21;;;;;;;119.30;40.85;;;;;;;-1.23;92.08;102426.44;5030070;28;20037;-69
2023/01/26 00:58:48;;;;;;;114.43;40.65;;;;;;;-1.23;91.90;102422.16;5043190;28;20395;-68
2023/01/26 01:01:16;;;;;;;123.13;44.17;;;;;;;-1.21;92.10;102419.63;5044195;28;20039;-68
2023/01/26 01:03:43;;;;;;;109.40;40.28;;;;;;;-1.20;91.90;102416.22;5041444;28;20540;-69
2023/01/26 01:06:10;;;;;;;98.47;37.78;;;;;;;-1.23;91.87;102414.41;5044318;28;20076;-69
2023/01/26 01:08:37;;;;;;;116.30;40.15;;;;;;;-1.23;92.07;102401.44;5057401;28;20077;-69
2023/01/26 01:11:09;;;;;;;103.13;39.08;;;;;;;-1.22;92.03;102395.44;5040747;28;20042;-69
2023/01/26 01:13:38;;;;;;;105.32;40.63;;;;;;;-1.23;92.00;102408.31;5043939;28;20046;-69
2023/01/26 01:16:08;;;;;;;108.38;39.20;;;;;;;-1.27;91.99;102397.81;5029278;28;20533;-69
2023/01/26 01:18:36;;;;;;;100.65;38.10;;;;;;;-1.26;92.06;102399.59;5042982;28;20104;-70
2023/01/26 01:21:13;;;;;;;104.03;38.28;;;;;;;-1.25;92.06;102401.38;5036657;28;20049;-69
2023/01/26 01:23:41;;;;;;;99.63;38.05;;;;;;;-1.23;92.29;102403.13;5078803;28;20038;-69
2023/01/26 01:26:09;;;;;;;95.47;38.10;;;;;;;-1.20;92.32;102398.97;5047383;28;20052;-69
2023/01/26 01:28:37;;;;;;;104.15;38.83;;;;;;;-1.16;92.29;102397.41;5044937;28;20540;-68
2023/01/26 01:31:07;;;;;;;96.55;38.13;;;;;;;-1.13;92.34;102394.94;5044661;28;20047;-69
2023/01/26 01:33:35;;;;;;;97.30;36.63;;;;;;;-1.14;92.40;102393.19;5045338;28;20543;-70
2023/01/26 01:36:09;;;;;;;102.38;37.67;;;;;;;-1.15;92.16;102391.41;5045099;28;20073;-68
2023/01/26 01:38:38;;;;;;;103.65;39.50;;;;;;;-1.16;92.35;102380.19;5039466;28;20080;-69
2023/01/26 01:41:07;;;;;;;91.22;35.97;;;;;;;-1.14;92.27;102386.31;5034509;28;20042;-69
2023/01/26 01:43:36;;;;;;;95.43;36.95;;;;;;;-1.12;92.34;102388.97;5042029;28;20041;-68
2023/01/26 01:46:35;;;;;;;93.45;37.28;;;;;;;-1.11;92.28;102388.13;5041637;28;20041;-70
2023/01/26 01:49:16;;;;;;;97.65;38.42;;;;;;;-1.08;92.32;102397.72;5055762;28;20591;-69
2023/01/26 01:52:12;;;;;;;94.45;35.45;;;;;;;-1.05;92.27;102397.88;5039905;28;20037;-69
2023/01/26 01:54:50;;;;;;;89.10;34.92;;;;;;;-1.06;92.23;102396.97;5042798;28;20049;-70
2023/01/26 01:57:30;;;;;;;86.57;35.97;;;;;;;-1.03;92.37;102391.94;5042476;28;20131;-69
2023/01/26 02:00:06;;;;;;;96.13;37.67;;;;;;;-1.02;92.23;102401.47;5042984;28;20038;-69
2023/01/26 02:02:43;;;;;;;83.32;34.90;;;;;;;-1.01;92.22;102403.25;5044759;28;20513;-69
2023/01/26 02:05:29;;;;;;;91.63;34.45;;;;;;;-1.00;92.20;102399.84;5045475;28;20072;-69
2023/01/26 02:07:57;;;;;;;83.38;34.28;;;;;;;-1.00;92.06;102402.44;5040606;28;20046;-69
2023/01/26 02:10:24;;;;;;;78.50;33.20;;;;;;;-0.99;91.91;102393.84;5041408;28;20135;-69
2023/01/26 02:12:55;;;;;;;91.07;36.97;;;;;;;-0.97;92.04;102384.41;5043138;28;20050;-69
2023/01/26 02:15:22;;;;;;;91.35;36.33;;;;;;;-0.96;92.02;102383.59;5040628;28;20092;-70
2023/01/26 02:17:51;;;;;;;87.65;35.45;;;;;;;-0.95;91.97;102384.50;5059867;28;20052;-70
2023/01/26 02:20:51;;;;;;;87.30;35.33;;;;;;;-0.94;92.01;102384.56;5060636;28;20084;-70
2023/01/26 02:23:40;;;;;;;96.85;37.03;;;;;;;-0.92;92.09;102388.91;5046637;28;20057;-70
2023/01/26 02:26:18;;;;;;;89.30;35.10;;;;;;;-0.94;92.14;102386.28;5057673;28;20045;-70
2023/01/26 02:28:46;;;;;;;95.00;36.50;;;;;;;-0.95;92.13;102381.91;5046936;28;20994;-70
2023/01/26 02:31:17;;;;;;;90.47;35.63;;;;;;;-0.96;92.13;102373.25;5046129;28;20104;-70
2023/01/26 02:33:46;;;;;;;92.05;36.65;;;;;;;-0.95;92.29;102375.00;5029272;28;20072;-70
2023/01/26 02:36:20;;;;;;;93.65;36.47;;;;;;;-0.92;91.87;102381.16;5048314;28;20144;-69
2023/01/26 02:39:07;;;;;;;84.07;34.97;;;;;;;-0.94;92.23;102371.59;5058059;28;20123;-70
2023/01/26 02:44:22;;;;;;;85.63;35.03;;;;;;;-0.92;92.14;102365.59;5058889;28;20527;-70
2023/01/26 02:46:49;;;;;;;84.38;34.67;;;;;;;-0.94;92.06;102361.25;5045911;28;20077;-72
2023/01/26 02:52:06;;;;;;;88.90;36.22;;;;;;;-0.92;92.15;102358.75;5055556;28;20076;-70
2023/01/26 02:57:20;;;;;;;91.75;36.15;;;;;;;-0.93;92.21;102356.97;5044069;28;20324;-71
2023/01/26 02:59:47;;;;;;;88.95;35.65;;;;;;;-0.94;92.28;102357.78;5045479;28;20037;-70
2023/01/26 03:02:14;;;;;;;86.38;34.78;;;;;;;-0.92;92.33;102357.84;5042473;28;20034;-72
2023/01/26 03:04:42;;;;;;;84.50;37.33;;;;;;;-0.91;92.36;102360.47;5042890;28;20144;-71
2023/01/26 03:07:10;;;;;;;83.05;34.28;;;;;;;-0.89;92.36;102363.16;5045363;28;20041;-70
2023/01/26 03:09:37;;;;;;;87.97;34.70;;;;;;;-0.90;92.32;102361.38;5046888;28;20049;-71
2023/01/26 03:12:04;;;;;;;83.93;34.15;;;;;;;-0.92;92.24;102355.25;5061954;28;20144;-70
2023/01/26 03:14:31;;;;;;;81.40;34.90;;;;;;;-0.94;92.40;102355.19;5045718;28;20040;-70
2023/01/26 03:16:58;;;;;;;81.45;34.22;;;;;;;-0.92;92.38;102353.56;5044182;28;20049;-70
2023/01/26 03:27:48;;;;;;;87.90;35.60;;;;;;;-0.86;92.54;102343.44;5060530;28;20132;-70
2023/01/26 03:30:20;;;;;;;83.72;34.95;;;;;;;-0.85;92.56;102347.81;5058685;28;20030;-70
2023/01/26 03:32:49;;;;;;;82.85;35.08;;;;;;;-0.85;92.49;102346.91;5062406;28;20535;-70
2023/01/26 03:35:21;;;;;;;83.53;35.15;;;;;;;-0.86;92.42;102352.91;5054870;28;20045;-71
2023/01/26 03:37:53;;;;;;;79.72;35.10;;;;;;;-0.88;92.38;102344.22;5044574;28;20046;-71
2023/01/26 03:57:10;;;;;;;85.40;34.40;;;;;;;-0.89;92.79;102347.63;5059925;28;20056;-71
2023/01/26 03:59:37;;;;;;;84.38;34.60;;;;;;;-0.89;92.78;102348.50;5042586;28;20108;-70
2023/01/26 04:10:32;;;;;;;79.20;32.78;;;;;;;-0.84;92.94;102343.50;5046837;28;20064;-70
2023/01/26 04:21:30;;;;;;;76.45;33.30;;;;;;;-0.82;92.83;102352.22;5061170;28;20364;-67
2023/01/26 04:24:00;;;;;;;75.35;33.03;;;;;;;-0.82;92.81;102347.94;5044545;28;20183;-68
2023/01/26 04:26:33;;;;;;;83.72;34.35;;;;;;;-0.80;92.97;102353.19;5061194;28;20048;-68
2023/01/26 04:29:11;;;;;;;77.95;33.90;;;;;;;-0.78;92.95;102341.19;5017153;28;20095;-69
2023/01/26 04:31:41;;;;;;;75.55;31.83;;;;;;;-0.76;93.10;102346.41;5046251;28;20069;-70
2023/01/26 04:34:13;;;;;;;77.72;32.90;;;;;;;-0.74;93.15;102339.59;5058218;28;20088;-69
2023/01/26 04:36:42;;;;;;;73.22;32.92;;;;;;;-0.74;93.23;102349.94;5041275;28;20050;-69
2023/01/26 04:39:09;;;;;;;73.35;31.73;;;;;;;-0.74;93.02;102347.38;5043900;28;20034;-69
2023/01/26 04:41:40;;;;;;;70.38;31.10;;;;;;;-0.76;93.08;102355.06;5043449;28;20063;-69
2023/01/26 04:44:11;;;;;;;76.10;32.03;;;;;;;-0.73;92.96;102349.13;5043165;28;20139;-68
2023/01/26 04:46:38;;;;;;;75.88;32.47;;;;;;;-0.73;93.08;102352.59;5043806;28;20037;-69
2023/01/26 04:49:05;;;;;;;73.50;32.38;;;;;;;-0.71;93.24;102343.19;5042754;28;20612;-67
2023/01/26 04:51:33;;;;;;;70.20;30.05;;;;;;;-0.71;93.08;102338.00;5054554;28;20042;-68
2023/01/26 04:54:00;;;;;;;76.32;31.73;;;;;;;-0.68;93.02;102347.59;5044311;28;20667;-69
2023/01/26 04:56:32;;;;;;;73.53;31.65;;;;;;;-0.67;93.07;102345.09;5027527;28;20449;-68
2023/01/26 04:59:05;;;;;;;76.28;31.45;;;;;;;-0.66;93.08;102344.25;5039905;28;20033;-69
2023/01/26 05:01:33;;;;;;;72.93;31.20;;;;;;;-0.69;93.27;102344.13;5042464;28;20150;-69
2023/01/26 05:04:05;;;;;;;69.55;29.60;;;;;;;-0.71;93.16;102340.59;5042617;28;20040;-69
2023/01/26 05:06:33;;;;;;;70.38;30.70;;;;;;;-0.69;93.38;102340.66;5042520;28;20041;-69
2023/01/26 05:09:00;;;;;;;70.63;31.17;;;;;;;-0.67;93.48;102334.72;5040910;28;20042;-69
2023/01/26 05:11:28;;;;;;;70.78;29.48;;;;;;;-0.66;93.67;102333.88;5008865;28;20485;-70
2023/01/26 05:14:04;;;;;;;71.57;29.80;;;;;;;-0.64;93.37;102336.56;5053000;28;20056;-70
2023/01/26 05:16:36;;;;;;;70.65;30.33;;;;;;;-0.63;93.48;102326.25;5053410;28;20044;-70
2023/01/26 05:19:06;;;;;;;65.70;28.23;;;;;;;-0.60;93.53;102330.66;5058862;28;20033;-70
2023/01/26 05:21:42;;;;;;;67.13;28.83;;;;;;;-0.58;93.57;102329.00;5026035;28;20847;-70
2023/01/26 05:24:11;;;;;;;61.85;27.25;;;;;;;-0.57;93.60;102324.72;5042379;28;20041;-69
2023/01/26 05:27:19;;;;;;;65.88;28.95;;;;;;;-0.55;93.59;102331.72;5044057;28;20044;-69
2023/01/26 05:29:48;;;;;;;58.97;27.23;;;;;;;-0.54;93.85;102330.91;5053330;28;20045;-71
2023/01/26 05:32:16;;;;;;;59.03;26.20;;;;;;;-0.53;93.72;102332.69;5033324;28;20030;-68
2023/01/26 05:34:45;;;;;;;58.47;25.60;;;;;;;-0.52;93.52;102331.84;5043621;28;20033;-70
2023/01/26 05:37:13;;;;;;;59.72;26.73;;;;;;;-0.50;93.73;102326.72;5042077;28;20077;-68
2023/01/26 05:39:43;;;;;;;57.35;26.08;;;;;;;-0.49;93.70;102339.72;5059431;28;20045;-69
2023/01/26 05:42:12;;;;;;;61.75;27.27;;;;;;;-0.47;93.76;102330.31;5043138;28;20152;-69
2023/01/26 05:44:59;;;;;;;63.53;27.55;;;;;;;-0.46;93.72;102331.22;5037503;28;20171;-69
2023/01/26 05:47:27;;;;;;;62.05;27.23;;;;;;;-0.44;93.87;102331.28;5038098;28;20076;-70
2023/01/26 05:49:54;;;;;;;57.13;25.17;;;;;;;-0.44;93.97;102334.72;5058735;28;20564;-67
2023/01/26 05:52:26;;;;;;;55.03;26.00;;;;;;;-0.42;93.87;102332.22;5043013;28;20044;-68
2023/01/26 05:54:53;;;;;;;56.17;24.23;;;;;;;-0.41;93.67;102336.59;5044385;28;20453;-66
2023/01/26 05:57:20;;;;;;;52.47;24.63;;;;;;;-0.39;93.75;102334.91;5042990;28;20045;-68
2023/01/26 05:59:52;;;;;;;54.20;24.33;;;;;;;-0.27;94.10;102337.09;5062894;28;20053;-68
2023/01/26 06:02:20;;;;;;;51.95;23.42;;;;;;;-0.22;94.07;102338.16;5044330;28;20046;-67
2023/01/26 06:04:48;;;;;;;51.78;23.40;;;;;;;-0.23;93.71;102333.78;5058407;28;20044;-68
2023/01/26 06:07:15;;;;;;;49.35;23.33;;;;;;;-0.30;93.36;102337.84;5056539;28;20161;-67
2023/01/26 06:09:53;;;;;;;50.13;22.70;;;;;;;-0.35;93.32;102337.69;5037982;28;20050;-67
2023/01/26 06:12:34;;;;;;;54.83;24.25;;;;;;;-0.35;93.30;102332.50;5044176;28;20045;-67
2023/01/26 06:15:11;;;;;;;54.65;23.77;;;;;;;-0.34;93.54;102338.56;5039313;28;20069;-68
2023/01/26 06:17:42;;;;;;;48.05;21.58;;;;;;;-0.35;93.68;102342.00;5039161;28;20040;-69
2023/01/26 06:20:13;;;;;;;53.88;23.60;;;;;;;-0.40;93.63;102335.72;5046677;28;20402;-68
2023/01/26 06:22:44;;;;;;;47.53;21.05;;;;;;;-0.44;93.54;102342.50;5058746;28;20528;-68
2023/01/26 06:25:12;;;;;;;42.88;20.05;;;;;;;-0.47;93.62;102337.22;5035610;28;20539;-68
2023/01/26 06:27:40;;;;;;;42.63;20.35;;;;;;;-0.46;93.79;102344.19;5043320;28;20048;-68
2023/01/26 06:30:16;;;;;;;55.85;23.15;;;;;;;-0.48;93.87;102341.50;5061602;28;20572;-68
2023/01/26 06:32:46;;;;;;;49.05;22.63;;;;;;;-0.50;93.80;102342.28;5042360;28;20048;-69
2023/01/26 06:35:13;;;;;;;48.47;23.00;;;;;;;-0.51;94.21;102343.97;5020102;28;20077;-68
2023/01/26 06:37:41;;;;;;;47.25;21.23;;;;;;;-0.50;94.18;102343.16;5043776;28;20030;-68
2023/01/26 06:40:10;;;;;;;44.05;20.40;;;;;;;-0.48;94.33;102346.69;5042229;28;20152;-68
2023/01/26 06:42:37;;;;;;;40.72;19.88;;;;;;;-0.46;94.35;102349.34;5051181;28;20037;-68
2023/01/26 06:45:06;;;;;;;44.25;20.05;;;;;;;-0.44;94.54;102352.00;5033588;28;20592;-68
2023/01/26 06:47:33;;;;;;;45.15;20.45;;;;;;;-0.40;94.61;102354.78;5032347;28;20041;-68
2023/01/26 06:50:03;;;;;;;42.15;19.50;;;;;;;-0.39;94.50;102343.59;5040427;28;20499;-68
2023/01/26 06:52:35;;;;;;;39.53;18.83;;;;;;;-0.37;94.57;102354.00;5041944;28;20912;-68
2023/01/26 06:55:21;;;;;;;44.00;19.58;;;;;;;-0.38;94.42;102357.41;5039021;28;20042;-68
2023/01/26 06:57:59;;;;;;;41.88;19.38;;;;;;;-0.40;94.52;102359.94;5046135;28;20803;-68
2023/01/26 07:00:55;;;;;;;46.67;19.40;;;;;;;-0.40;94.51;102359.03;5064645;28;20567;-68
2023/01/26 07:03:26;;;;;;;43.95;19.70;;;;;;;-0.43;94.59;102358.94;5050289;28;20048;-68
2023/01/26 07:05:53;;;;;;;43.75;20.00;;;;;;;-0.46;94.57;102362.31;5046838;28;20041;-68
2023/01/26 07:08:20;;;;;;;43.38;19.40;;;;;;;-0.46;94.57;102359.72;5050009;28;20048;-68
2023/01/26 07:10:49;;;;;;;41.90;19.08;;;;;;;-0.45;94.91;102351.09;5061568;28;20030;-68
2023/01/26 07:13:16;;;;;;;41.95;18.98;;;;;;;-0.42;94.86;102353.81;5058498;28;20033;-67
2023/01/26 07:15:43;;;;;;;41.78;17.88;;;;;;;-0.43;94.75;102351.19;5068945;28;21005;-67
2023/01/26 07:18:11;;;;;;;47.83;19.85;;;;;;;-0.44;94.85;102349.41;5056685;28;20521;-67
2023/01/26 07:20:38;;;;;;;44.58;18.05;;;;;;;-0.46;94.85;102349.34;5046709;28;20045;-68
2023/01/26 07:23:05;;;;;;;47.95;19.85;;;;;;;-0.45;95.07;102355.41;5048471;28;20046;-68
2023/01/26 07:25:32;;;;;;;50.17;20.02;;;;;;;-0.43;95.20;102367.59;5043329;28;20038;-68
2023/01/26 07:28:00;;;;;;;42.75;19.20;;;;;;;-0.40;95.32;102365.13;5046952;28;20052;-67
2023/01/26 07:30:27;;;;;;;41.92;18.20;;;;;;;-0.40;95.07;102365.13;5061783;28;20052;-68
2023/01/26 07:32:54;;;;;;;43.20;18.25;;;;;;;-0.42;95.18;102363.31;5045275;28;20034;-67
2023/01/26 07:35:21;;;;;;;45.25;18.52;;;;;;;-0.42;95.29;102365.91;5044926;28;20034;-67
2023/01/26 07:37:48;;;;;;;39.72;17.77;;;;;;;-0.44;95.05;102373.59;5043726;28;20080;-67
2023/01/26 07:40:15;;;;;;;42.25;18.60;;;;;;;-0.44;95.21;102370.13;5062993;28;20045;-67
2023/01/26 07:42:42;;;;;;;43.95;18.88;;;;;;;-0.44;95.15;102383.09;5048724;28;20471;-68
2023/01/26 07:45:20;;;;;;;40.25;17.52;;;;;;;-0.45;95.42;102374.41;5042062;28;20119;-67
2023/01/26 07:47:47;;;;;;;39.72;17.52;;;;;;;-0.47;95.49;102381.28;5043069;28;20041;-67
2023/01/26 07:50:14;;;;;;;42.92;17.70;;;;;;;-0.45;95.73;102376.13;5046330;28;20034;-67
2023/01/26 07:52:42;;;;;;;41.60;17.95;;;;;;;-0.42;95.74;102377.13;5053313;28;20092;-68
2023/01/26 07:55:10;;;;;;;38.33;17.20;;;;;;;-0.39;95.96;102382.47;5045326;28;20499;-68
2023/01/26 07:57:37;;;;;;;38.00;17.25;;;;;;;-0.37;95.98;102379.91;5047815;28;20053;-68
2023/01/26 08:00:05;;;;;;;41.17;18.00;;;;;;;-0.35;96.19;102383.47;5045520;28;20484;-68
2023/01/26 08:02:37;;;;;;;40.95;17.77;;;;;;;-0.34;96.25;102380.91;5041627;28;20041;-67
2023/01/26 08:05:05;;;;;;;38.42;16.67;;;;;;;-0.29;96.24;102380.22;5047231;28;20033;-67
2023/01/26 08:07:32;;;;;;;38.83;17.65;;;;;;;-0.27;96.25;102381.16;5045200;28;20046;-68
2023/01/26 08:09:59;;;;;;;41.78;18.52;;;;;;;-0.24;96.28;102377.00;5044552;28;20101;-67
2023/01/26 08:12:27;;;;;;;40.58;18.17;;;;;;;-0.19;96.21;102388.41;5047254;28;20514;-67
2023/01/26 08:14:54;;;;;;;44.53;18.40;;;;;;;-0.17;96.38;102380.72;5062954;28;20575;-67
2023/01/26 08:17:21;;;;;;;43.33;18.13;;;;;;;-0.15;96.44;102386.81;5043284;28;20073;-68
2023/01/26 08:19:48;;;;;;;42.83;18.42;;;;;;;-0.13;96.30;102386.88;5044748;28;20215;-67
2023/01/26 08:22:15;;;;;;;47.08;19.30;;;;;;;-0.11;96.28;102387.84;5045745;28;20128;-67
2023/01/26 08:24:42;;;;;;;40.78;18.63;;;;;;;-0.11;96.11;102391.31;5046837;28;20089;-67
2023/01/26 08:27:09;;;;;;;44.55;19.65;;;;;;;-0.13;96.15;102384.28;5046666;28;20038;-67
2023/01/26 08:29:36;;;;;;;41.03;18.33;;;;;;;-0.12;96.05;102386.94;5047332;28;20045;-68
2023/01/26 08:32:03;;;;;;;38.88;17.85;;;;;;;-0.13;95.97;102394.66;5046662;28;20045;-67
2023/01/26 08:34:30;;;;;;;44.58;18.30;;;;;;;-0.13;95.81;102394.66;5047138;28;20041;-67
2023/01/26 08:36:57;;;;;;;45.17;19.58;;;;;;;-0.13;95.95;102400.72;5046890;28;20076;-67
2023/01/26 08:39:24;;;;;;;42.63;18.23;;;;;;;-0.11;95.79;102390.44;5046315;28;20045;-66
2023/01/26 08:41:51;;;;;;;47.42;19.30;;;;;;;-0.16;95.96;102398.03;5046989;28;20989;-67
2023/01/26 08:44:18;;;;;;;45.22;19.55;;;;;;;-0.15;95.69;102397.19;5044913;28;20532;-67
2023/01/26 08:46:46;;;;;;;49.28;20.08;;;;;;;-0.10;96.15;102397.38;5045753;28;20052;-67
2023/01/26 08:49:13;;;;;;;46.67;19.88;;;;;;;-0.07;96.21;102393.19;5045726;28;20037;-67
2023/01/26 08:51:40;;;;;;;58.10;20.42;;;;;;;-0.06;96.28;102400.16;5046035;28;20033;-67
2023/01/26 08:54:07;;;;;;;50.22;19.25;;;;;;;-0.01;96.26;102408.97;5045334;28;20510;-66
2023/01/26 08:56:34;;;;;;;51.38;21.00;;;;;;;0.00;96.30;102402.09;5044612;28;20045;-68
2023/01/26 08:59:01;;;;;;;46.15;19.30;;;;;;;0.01;96.07;102408.16;5061898;28;20065;-67
2023/01/26 09:01:28;;;;;;;48.50;20.02;;;;;;;0.01;96.09;102409.03;5046176;28;20049;-67
2023/01/26 09:03:57;;;;;;;49.55;19.63;;;;;;;0.03;96.28;102409.97;5046740;28;20057;-67
2023/01/26 09:06:24;;;;;;;44.50;19.05;;;;;;;0.07;96.26;102414.47;5061734;28;20862;-67
2023/01/26 09:08:51;;;;;;;47.08;19.90;;;;;;;0.10;96.15;102413.69;5045634;28;20053;-68
2023/01/26 09:11:18;;;;;;;47.83;20.00;;;;;;;0.11;95.95;102413.75;5061949;28;20107;-68
2023/01/26 09:13:55;;;;;;;44.38;18.55;;;;;;;0.15;95.90;102407.88;5046497;28;20037;-68
2023/01/26 09:16:24;;;;;;;49.65;19.50;;;;;;;0.18;96.13;102409.69;5046292;28;20042;-68
2023/01/26 09:18:52;;;;;;;51.45;20.23;;;;;;;0.21;96.10;102408.91;5045555;28;20049;-68
2023/01/26 09:21:22;;;;;;;50.58;19.83;;;;;;;0.22;96.08;102413.28;5046779;28;20033;-67
2023/01/26 09:23:49;;;;;;;53.83;19.67;;;;;;;0.22;95.97;102414.16;5045553;28;20508;-68
2023/01/26 09:26:17;;;;;;;51.10;20.45;;;;;;;0.26;96.12;102416.03;5045007;28;20529;-67
2023/01/26 09:28:44;;;;;;;59.70;20.58;;;;;;;0.29;96.30;102417.88;5047919;28;20057;-66
2023/01/26 09:31:11;;;;;;;54.05;21.17;;;;;;;0.35;96.34;102406.84;5048320;28;20119;-67
2023/01/26 09:33:38;;;;;;;57.40;21.20;;;;;;;0.40;96.40;102410.50;5049241;28;20048;-68
2023/01/26 09:36:09;;;;;;;57.75;21.92;;;;;;;0.43;96.25;102410.59;5050285;28;20046;-67
2023/01/26 09:38:37;;;;;;;61.72;20.58;;;;;;;0.48;96.33;102416.84;5049219;28;20109;-67
2023/01/26 09:41:42;;;;;;;65.68;23.60;;;;;;;0.56;96.28;102415.41;5049570;28;20042;-67
2023/01/26 09:44:22;;;;;;;55.50;22.00;;;;;;;0.61;96.31;102410.41;5048151;28;20619;-67
2023/01/26 09:47:11;;;;;;;79.68;22.90;;;;;;;0.68;96.24;102414.06;5048956;28;20575;-67
2023/01/26 09:49:47;;;;;;;92.78;23.58;;;;;;;0.70;95.99;102415.94;5049609;28;20138;-67
2023/01/26 09:52:27;;;;;;;60.15;21.67;;;;;;;0.72;96.06;102413.38;5049834;28;20081;-68
2023/01/26 09:54:59;;;;;;;68.05;22.45;;;;;;;0.76;96.06;102415.25;5048548;28;20045;-67
2023/01/26 09:58:01;;;;;;;99.53;26.17;;;;;;;0.79;95.83;102406.69;5046981;28;20476;-67
2023/01/26 10:00:43;;;;;;;84.10;24.63;;;;;;;0.81;96.01;102408.50;5044881;28;20041;-67
2023/01/26 10:03:32;;;;;;;94.00;25.40;;;;;;;0.82;95.71;102398.97;5045216;28;20056;-67
2023/01/26 10:06:17;;;;;;;85.60;25.23;;;;;;;0.83;95.71;102404.25;5049952;28;20049;-67
2023/01/26 10:09:34;;;;;;;91.10;25.52;;;;;;;0.81;95.70;102397.25;5049537;28;20037;-67
2023/01/26 10:12:13;;;;;;;94.35;25.13;;;;;;;0.79;95.90;102406.69;5047407;28;20068;-67
2023/01/26 10:15:04;;;;;;;119.22;27.70;;;;;;;0.77;95.52;102406.63;5049325;28;20034;-69
2023/01/26 10:17:44;;;;;;;143.43;29.30;;;;;;;0.74;95.66;102403.94;5046971;28;20044;-67
2023/01/26 10:20:14;;;;;;;143.57;29.65;;;;;;;0.71;96.02;102403.81;5048761;28;20041;-68
2023/01/26 10:22:50;;;;;;;112.40;28.05;;;;;;;0.72;96.14;102405.59;5048220;28;20068;-67
2023/01/26 10:25:32;;;;;;;98.55;27.33;;;;;;;0.76;96.39;102405.75;5047353;28;20038;-67
2023/01/26 10:28:12;;;;;;;135.02;29.95;;;;;;;0.83;96.57;102390.38;5048639;28;20069;-66
2023/01/26 10:30:42;;;;;;;90.18;26.23;;;;;;;0.90;96.62;102389.78;5049845;28;20038;-68
2023/01/26 10:33:26;;;;;;;86.85;27.23;;;;;;;1.00;96.74;102389.25;5048245;28;20090;-67
2023/01/26 10:35:53;;;;;;;78.23;25.40;;;;;;;1.13;97.01;102387.06;5064158;28;20052;-67
2023/01/26 10:38:33;;;;;;;103.60;27.50;;;;;;;1.26;96.98;102397.03;5063857;28;20042;-68
2023/01/26 10:41:15;;;;;;;117.43;28.65;;;;;;;1.30;96.83;102403.22;5047063;28;20038;-68
2023/01/26 10:43:58;;;;;;;109.38;29.65;;;;;;;1.32;96.56;102398.94;5049131;28;20562;-68
2023/01/26 10:46:36;;;;;;;119.00;28.67;;;;;;;1.34;96.51;102395.56;5045646;28;20952;-68
2023/01/26 10:49:07;;;;;;;163.68;33.90;;;;;;;1.37;96.64;102402.59;5063438;28;20049;-68
2023/01/26 10:51:38;;;;;;;189.65;32.95;;;;;;;1.39;96.58;102403.50;5048290;28;20061;-68
2023/01/26 10:54:25;;;;;;;222.73;37.60;;;;;;;1.42;96.41;102402.75;5047650;28;20114;-68
2023/01/26 10:57:06;;;;;;;175.10;32.72;;;;;;;1.45;96.22;102400.22;5048023;28;20045;-68
2023/01/26 10:59:52;;;;;;;175.77;32.55;;;;;;;1.46;96.14;102400.28;5047114;28;20041;-68
2023/01/26 11:02:26;;;;;;;128.48;30.95;;;;;;;1.46;96.09;102402.00;5048550;28;20044;-68
2023/01/26 11:05:06;;;;;;;293.50;39.63;;;;;;;1.47;96.04;102399.47;5062025;28;20926;-67
2023/01/26 11:07:44;;;;;;;203.90;33.90;;;;;;;1.48;96.05;102387.34;5059921;28;20164;-67
2023/01/26 11:10:17;;;;;;;185.80;32.70;;;;;;;1.54;96.27;102387.53;5043989;28;20476;-67
2023/01/26 11:12:45;;;;;;;272.83;39.67;;;;;;;1.61;96.41;102392.09;5047901;28;20049;-67
2023/01/26 11:15:22;;;;;;;311.33;41.92;;;;;;;1.64;96.46;102391.31;5049555;28;20052;-67
2023/01/26 11:18:10;;;;;;;176.07;29.75;;;;;;;1.69;96.24;102380.22;5047350;28;20045;-67
2023/01/26 11:20:48;;;;;;;326.83;42.50;;;;;;;1.76;96.34;102385.59;5046538;28;20584;-67
2023/01/26 11:23:36;;;;;;;331.98;42.30;;;;;;;1.86;96.56;102378.16;5047010;28;20034;-67
2023/01/26 11:26:33;;;;;;;244.40;33.72;;;;;;;2.05;96.57;102378.69;5045417;28;20041;-68
2023/01/26 11:29:27;;;;;;;200.35;30.05;;;;;;;2.16;96.62;102376.38;5043574;28;20038;-67
2023/01/26 11:32:22;;;;;;;290.48;35.80;;;;;;;2.31;96.48;102375.94;5048195;28;20061;-68
2023/01/26 11:35:32;;;;;;;324.42;40.65;;;;;;;2.36;96.28;102384.78;5047793;28;20479;-68
2023/01/26 11:38:33;;;;;;;301.05;36.88;;;;;;;2.42;96.60;102377.13;5036540;28;20072;-67
2023/01/26 11:41:24;;;;;;;296.83;37.60;;;;;;;2.49;96.75;102373.84;5048214;28;20044;-68
2023/01/26 11:44:16;;;;;;;293.45;36.92;;;;;;;2.58;96.71;102377.59;5044525;28;20045;-68
2023/01/26 11:47:21;;;;;;;263.38;33.83;;;;;;;2.66;97.03;102368.25;5046974;28;20041;-67
2023/01/26 11:50:32;;;;;;;182.38;28.45;;;;;;;2.73;97.27;102366.69;5036692;28;20163;-68
2023/01/26 11:53:25;;;;;;;162.95;27.30;;;;;;;2.75;97.26;102375.41;5038705;28;20559;-68
2023/01/26 11:56:09;;;;;;;152.93;26.67;;;;;;;2.81;97.50;102380.81;5046080;28;20041;-67
2023/01/26 11:58:54;;;;;;;140.02;25.42;;;;;;;2.87;97.51;102369.66;5052208;28;20574;-68
2023/01/26 12:01:32;;;;;;;135.35;25.70;;;;;;;3.09;97.52;102369.38;5044131;28;20045;-70
2023/01/26 12:03:59;;;;;;;111.22;23.60;;;;;;;3.32;97.64;102361.22;5064325;28;20052;-67
2023/01/26 12:06:41;;;;;;;148.55;24.25;;;;;;;3.49;97.62;102364.25;5043813;28;20484;-67
2023/01/26 12:09:37;;;;;;;110.38;24.05;;;;;;;3.63;97.50;102361.06;5044939;28;20046;-68
2023/01/26 12:12:32;;;;;;;97.75;21.20;;;;;;;3.76;97.51;102360.53;5046651;28;20044;-68
2023/01/26 12:15:10;;;;;;;90.90;18.75;;;;;;;3.83;97.19;102357.19;5040741;28;20049;-68
2023/01/26 12:18:15;;;;;;;76.63;19.00;;;;;;;3.95;97.34;102356.56;5045667;28;20104;-67
2023/01/26 12:20:57;;;;;;;70.93;17.70;;;;;;;4.17;97.38;102352.66;5044879;28;20127;-68
2023/01/26 12:23:41;;;;;;;63.20;16.60;;;;;;;4.30;97.63;102345.09;5057545;28;20136;-67
2023/01/26 12:26:17;;;;;;;63.22;15.82;;;;;;;4.46;97.58;102349.78;5028198;28;20493;-67
2023/01/26 12:28:55;;;;;;;55.28;14.77;;;;;;;4.52;97.07;102351.63;5030375;28;20537;-68
2023/01/26 12:31:34;;;;;;;56.60;14.27;;;;;;;4.51;96.58;102340.28;5035710;28;20044;-68